createdAt,value
2019-06-08T00:02:20.844Z,-23000.94
2019-06-08T00:04:47.375Z,-23001.68
2019-06-08T00:07:14.621Z,-23001.54
2019-06-08T00:09:41.236Z,-23000.35
2019-06-08T00:12:07.763Z,-22999.46
2019-06-08T00:14:34.285Z,-23000.35
2019-06-08T00:17:00.871Z,-23000.50
2019-06-08T00:19:27.353Z,-23000.05
2019-06-08T00:21:53.919Z,-22998.87
2019-06-08T00:24:20.428Z,-22997.09
2019-06-08T00:26:47.128Z,-22998.27
2019-06-08T00:29:14.137Z,-22999.31
2019-06-08T00:31:40.685Z,-22998.42
2019-06-08T00:34:07.319Z,-22998.87
2019-06-08T00:36:33.850Z,-22999.02
2019-06-08T00:39:00.427Z,-22999.16
2019-06-08T00:41:26.955Z,-23000.65
2019-06-08T00:43:53.501Z,-22999.91
2019-06-08T00:46:21.331Z,-23001.83
2019-06-08T00:48:47.953Z,-23001.83
2019-06-08T00:51:14.594Z,-23003.01
2019-06-08T00:53:41.117Z,-23003.01
2019-06-08T00:56:07.664Z,-23002.87
2019-06-08T00:58:34.196Z,-23002.43
2019-06-08T01:01:00.815Z,-23003.31
2019-06-08T01:03:27.350Z,-23000.94
2019-06-08T01:05:53.886Z,-23002.13
2019-06-08T01:08:22.085Z,-23002.43
2019-06-08T01:10:48.874Z,-23006.27
2019-06-08T01:13:16.060Z,-23009.67
2019-06-08T01:15:42.593Z,-23008.64
2019-06-08T01:18:09.120Z,-23011.60
2019-06-08T01:20:35.643Z,-23012.19
2019-06-08T01:23:02.169Z,-23019.29
2019-06-08T01:25:30.042Z,-23022.25
2019-06-08T01:27:56.660Z,-23024.61
2019-06-08T01:30:24.229Z,-23025.79
2019-06-08T01:32:51.856Z,-23028.30
2019-06-08T01:35:18.500Z,-23026.53
2019-06-08T01:37:45.033Z,-23028.16
2019-06-08T01:40:12.650Z,-23029.34
2019-06-08T01:42:39.178Z,-23028.16
2019-06-08T01:45:06.530Z,-23029.78
2019-06-08T01:47:33.175Z,-23031.11
2019-06-08T01:49:59.740Z,-23033.48
2019-06-08T01:52:26.625Z,-23032.00
2019-06-08T01:54:53.198Z,-23030.82
2019-06-08T01:57:19.722Z,-23028.16
2019-06-08T01:59:46.266Z,-23025.79
2019-06-08T02:02:12.794Z,-23023.87
2019-06-08T02:04:39.329Z,-23021.06
2019-06-08T02:07:05.903Z,-23019.58
2019-06-08T02:09:32.779Z,-23021.06
2019-06-08T02:11:59.346Z,-23022.39
2019-06-08T02:14:27.095Z,-23021.50
2019-06-08T02:16:53.741Z,-23020.77
2019-06-08T02:19:20.277Z,-23019.58
2019-06-08T02:21:46.802Z,-23022.25
2019-06-08T02:24:13.327Z,-23019.88
2019-06-08T02:26:39.856Z,-23020.18
2019-06-08T02:29:06.394Z,-23022.68
2019-06-08T02:31:34.786Z,-23021.06
2019-06-08T02:34:01.363Z,-23020.18
2019-06-08T02:36:28.897Z,-23020.02
2019-06-08T02:38:56.407Z,-23021.06
2019-06-08T02:41:22.920Z,-23020.77
2019-06-08T02:43:49.453Z,-23020.02
2019-06-08T02:46:15.983Z,-23019.14
2019-06-08T02:49:02.689Z,-23019.44
2019-06-08T02:51:12.021Z,-23018.70
2019-06-08T02:53:41.406Z,-23017.81
2019-06-08T02:56:12.073Z,-23017.95
2019-06-08T02:58:41.117Z,-23016.47
2019-06-08T03:01:08.246Z,-23015.44
2019-06-08T03:03:35.832Z,-23016.47
2019-06-08T03:06:02.821Z,-23016.18
2019-06-08T03:08:36.138Z,-23016.04
2019-06-08T03:11:03.892Z,-23014.70
2019-06-08T03:13:33.577Z,-23016.04
2019-06-08T03:16:01.719Z,-23016.92
2019-06-08T03:18:28.303Z,-23016.33
2019-06-08T03:20:54.872Z,-23015.44
2019-06-08T03:23:21.396Z,-23015.59
2019-06-08T03:25:53.046Z,-23014.55
2019-06-08T03:28:16.356Z,-23015.00
2019-06-08T03:30:52.943Z,-23016.92
2019-06-08T03:33:11.326Z,-23017.36
2019-06-08T03:35:46.586Z,-23017.81
2019-06-08T03:38:06.308Z,-23017.81
2019-06-08T03:40:33.902Z,-23018.10
2019-06-08T03:43:02.817Z,-23017.07
2019-06-08T03:45:29.351Z,-23015.00
2019-06-08T03:47:55.875Z,-23016.04
2019-06-08T03:50:22.435Z,-23017.21
2019-06-08T03:52:48.957Z,-23016.33
2019-06-08T03:55:15.708Z,-23016.63
2019-06-08T03:57:42.229Z,-23016.92
2019-06-08T04:00:13.602Z,-23018.70
2019-06-08T04:02:38.373Z,-23016.33
2019-06-08T04:05:06.143Z,-23014.70
2019-06-08T04:07:32.787Z,-23016.04
2019-06-08T04:09:59.317Z,-23016.92
2019-06-08T04:12:25.838Z,-23018.84
2019-06-08T04:14:52.359Z,-23019.29
2019-06-08T04:17:18.907Z,-23020.32
2019-06-08T04:20:08.606Z,-23020.02
2019-06-08T04:22:13.857Z,-23018.84
2019-06-08T04:24:42.317Z,-23017.21
2019-06-08T04:27:08.861Z,-23016.92
2019-06-08T04:29:35.398Z,-23016.92
2019-06-08T04:32:02.049Z,-23017.52
2019-06-08T04:34:28.573Z,-23017.21
2019-06-08T04:36:55.094Z,-23018.10
2019-06-08T04:39:21.609Z,-23018.10
2019-06-08T04:41:48.146Z,-23017.07
2019-06-08T04:44:14.692Z,-23014.85
2019-06-08T04:46:43.028Z,-23015.29
2019-06-08T04:49:09.647Z,-23012.48
2019-06-08T04:51:36.174Z,-23012.19
2019-06-08T04:54:02.799Z,-23012.48
2019-06-08T04:56:29.322Z,-23011.00
2019-06-08T04:58:55.878Z,-23012.04
2019-06-08T05:01:22.431Z,-23014.26
2019-06-08T05:03:49.955Z,-23011.30
2019-06-08T05:06:16.843Z,-23010.11
2019-06-08T05:08:43.373Z,-23011.60
2019-06-08T05:11:09.901Z,-23011.30
2019-06-08T05:13:36.417Z,-23009.23
2019-06-08T05:16:03.210Z,-23009.53
2019-06-08T05:18:29.813Z,-23008.64
2019-06-08T05:20:56.328Z,-23007.75
2019-06-08T05:23:22.869Z,-23008.64
2019-06-08T05:25:49.465Z,-23004.79
2019-06-08T05:28:15.988Z,-23003.61
2019-06-08T05:30:43.221Z,-23003.90
2019-06-08T05:33:09.847Z,-23003.01
2019-06-08T05:35:36.392Z,-23004.64
2019-06-08T05:38:03.997Z,-23004.79
2019-06-08T05:40:30.514Z,-23007.75
2019-06-08T05:42:57.056Z,-23012.78
2019-06-08T05:45:23.593Z,-23013.37
2019-06-08T05:47:50.242Z,-23014.55
2019-06-08T05:50:16.864Z,-23015.00
2019-06-08T05:52:44.201Z,-23025.35
2019-06-08T05:55:11.043Z,-23034.66
2019-06-08T05:57:37.605Z,-23036.58
2019-06-08T06:00:09.435Z,-23041.01
2019-06-08T06:02:36.187Z,-23038.21
2019-06-08T06:05:05.204Z,-23042.49
2019-06-08T06:07:31.733Z,-23045.59
2019-06-08T06:09:58.252Z,-23041.16
2019-06-08T06:12:24.893Z,-23043.52
2019-06-08T06:14:51.413Z,-23048.55
2019-06-08T06:17:17.956Z,-23053.43
2019-06-08T06:19:45.185Z,-23058.89
2019-06-08T06:22:11.769Z,-23061.10
2019-06-08T06:24:38.700Z,-23060.95
2019-06-08T06:27:05.222Z,-23067.89
2019-06-08T06:29:31.853Z,-23066.86
2019-06-08T06:31:58.383Z,-23062.43
2019-06-08T06:34:24.966Z,-23060.80
2019-06-08T06:36:52.194Z,-23060.95
2019-06-08T06:39:18.972Z,-23065.08
2019-06-08T06:41:45.968Z,-23070.99
2019-06-08T06:44:12.660Z,-23067.15
2019-06-08T06:46:39.742Z,-23071.57
2019-06-08T06:49:06.287Z,-23073.64
2019-06-08T06:51:33.988Z,-23069.96
2019-06-08T06:54:00.647Z,-23072.46
2019-06-08T06:56:27.167Z,-23070.99
2019-06-08T06:58:53.873Z,-23070.99
2019-06-08T07:01:20.583Z,-23079.69
2019-06-08T07:03:47.969Z,-23078.95
2019-06-08T07:06:14.578Z,-23071.14
2019-06-08T07:08:42.089Z,-23077.18
2019-06-08T07:11:08.666Z,-23071.57
2019-06-08T07:13:35.191Z,-23077.77
2019-06-08T07:16:17.230Z,-23078.95
2019-06-08T07:18:30.325Z,-23083.08
2019-06-08T07:20:56.835Z,-23086.92
2019-06-08T07:23:24.108Z,-23076.00
2019-06-08T07:25:50.678Z,-23077.48
2019-06-08T07:28:17.267Z,-23082.64
2019-06-08T07:30:43.793Z,-23091.04
2019-06-08T07:33:10.310Z,-23085.14
2019-06-08T07:35:36.900Z,-23092.23
2019-06-08T07:38:03.547Z,-23111.96
2019-06-08T07:40:30.102Z,-23116.09
2019-06-08T07:42:56.868Z,-23124.34
2019-06-08T07:45:23.549Z,-23124.78
2019-06-08T07:47:51.924Z,-23123.16
2019-06-08T07:50:18.591Z,-23114.62
2019-06-08T07:52:45.122Z,-23109.46
2019-06-08T07:55:11.960Z,-23101.07
2019-06-08T07:57:38.474Z,-23106.37
2019-06-08T08:00:09.594Z,-23114.91
2019-06-08T08:02:34.748Z,-23111.38
2019-06-08T08:05:01.692Z,-23129.93
2019-06-08T08:07:28.220Z,-23137.28
2019-06-08T08:09:54.906Z,-23125.80
2019-06-08T08:12:21.488Z,-23134.63
2019-06-08T08:14:48.737Z,-23124.04
2019-06-08T08:17:15.389Z,-23131.84
2019-06-08T08:19:41.935Z,-23116.53
2019-06-08T08:22:22.346Z,-23122.42
2019-06-08T08:24:38.680Z,-23141.11
2019-06-08T08:27:08.180Z,-23118.74
2019-06-08T08:29:33.785Z,-23129.04
2019-06-08T08:32:01.815Z,-23128.75
2019-06-08T08:34:28.652Z,-23138.07
2019-06-08T08:36:58.150Z,-23143.46
2019-06-08T08:39:23.894Z,-20966.26
2019-06-08T08:41:56.323Z,-14818.59
2019-06-08T08:44:19.182Z,-10150.86
2019-06-08T08:46:45.733Z,-7817.12
2019-06-08T08:49:13.254Z,-261.89
2019-06-08T08:51:39.773Z,11983.05
2019-06-08T08:54:08.552Z,13616.86
2019-06-08T08:56:34.724Z,37367.20
2019-06-08T08:59:02.744Z,54214.53
2019-06-08T09:01:29.480Z,55092.46
2019-06-08T09:04:00.940Z,61343.06
2019-06-08T09:06:24.447Z,56601.34
2019-06-08T09:08:52.007Z,32376.64
2019-06-08T09:11:19.024Z,39683.19
2019-06-08T09:13:45.546Z,43159.38
2019-06-08T09:16:12.074Z,53272.54
2019-06-08T09:18:38.622Z,54678.34
2019-06-08T09:21:08.113Z,52773.78
2019-06-08T09:23:33.840Z,62517.00
2019-06-08T09:26:07.628Z,63043.00
2019-06-08T09:28:28.897Z,61027.39
2019-06-08T09:30:56.738Z,63137.32
2019-06-08T09:33:23.938Z,63115.65
2019-06-08T09:35:50.495Z,63096.37
2019-06-08T09:38:18.597Z,63151.05
2019-06-08T09:40:45.348Z,63143.99
2019-06-08T09:43:13.180Z,63180.96
2019-06-08T09:45:39.949Z,63094.03
2019-06-08T09:48:09.236Z,63033.93
2019-06-08T09:50:35.002Z,63151.63
2019-06-08T09:53:14.839Z,63150.11
2019-06-08T09:55:30.037Z,63054.99
2019-06-08T09:58:01.868Z,63093.78
2019-06-08T10:00:28.831Z,63175.62
2019-06-08T10:02:55.200Z,63176.26
2019-06-08T10:05:22.381Z,63149.15
2019-06-08T10:07:48.905Z,63143.85
2019-06-08T10:10:18.229Z,63114.44
2019-06-08T10:12:48.155Z,63147.59
2019-06-08T10:15:14.183Z,63160.01
2019-06-08T10:17:40.724Z,63211.68
2019-06-08T10:20:10.058Z,63306.54
2019-06-08T10:22:36.388Z,63294.10
2019-06-08T10:25:08.735Z,63272.67
2019-06-08T10:27:35.014Z,63284.57
2019-06-08T10:30:05.828Z,63215.34
2019-06-08T10:32:32.889Z,63191.98
2019-06-08T10:35:02.217Z,63281.64
2019-06-08T10:37:28.438Z,63344.78
2019-06-08T10:39:56.451Z,63290.73
2019-06-08T10:42:23.453Z,63252.73
2019-06-08T10:44:49.997Z,63278.37
2019-06-08T10:47:16.541Z,63182.62
2019-06-08T10:49:43.057Z,63221.60
2019-06-08T10:52:11.792Z,63250.75
2019-06-08T10:54:38.113Z,63179.58
2019-06-08T10:57:07.227Z,63295.05
2019-06-08T10:59:36.515Z,63232.13
2019-06-08T11:02:04.960Z,63220.34
2019-06-08T11:04:30.156Z,63215.06
2019-06-08T11:07:00.700Z,63202.01
2019-06-08T11:09:28.331Z,62977.87
2019-06-08T11:11:53.714Z,62411.52
2019-06-08T11:14:22.758Z,63101.29
2019-06-08T11:16:49.550Z,62132.48
2019-06-08T11:19:17.986Z,62883.88
2019-06-08T11:21:44.524Z,62681.91
2019-06-08T11:24:21.525Z,61701.38
2019-06-08T11:26:40.369Z,59979.75
2019-06-08T11:29:10.339Z,60301.62
2019-06-08T11:31:35.492Z,61858.78
2019-06-08T11:34:02.680Z,59067.88
2019-06-08T11:36:30.400Z,59078.40
2019-06-08T11:38:59.222Z,59703.48
2019-06-08T11:41:27.910Z,60980.87
2019-06-08T11:43:54.518Z,58965.53
2019-06-08T11:46:22.088Z,60939.39
2019-06-08T11:48:48.811Z,60507.16
2019-06-08T11:51:15.339Z,59851.18
2019-06-08T11:53:41.879Z,62654.98
2019-06-08T11:56:10.023Z,60036.18
2019-06-08T11:58:38.558Z,59262.34
2019-06-08T12:01:11.595Z,60775.75
2019-06-08T12:03:38.563Z,55845.87
2019-06-08T12:06:06.180Z,52528.25
2019-06-08T12:08:33.250Z,50667.11
2019-06-08T12:11:02.077Z,55578.59
2019-06-08T12:13:28.245Z,57963.54
2019-06-08T12:15:54.858Z,57322.42
2019-06-08T12:18:21.385Z,56528.08
2019-06-08T12:20:48.815Z,57643.71
2019-06-08T12:23:15.552Z,57039.60
2019-06-08T12:25:42.081Z,53634.33
2019-06-08T12:28:08.617Z,53475.25
2019-06-08T12:30:35.138Z,52488.94
2019-06-08T12:33:01.676Z,54303.17
2019-06-08T12:35:28.412Z,54687.89
2019-06-08T12:37:58.104Z,50677.52
2019-06-08T12:40:24.619Z,47383.65
2019-06-08T12:42:51.471Z,50104.82
2019-06-08T12:45:20.005Z,54281.71
2019-06-08T12:47:47.897Z,46607.50
2019-06-08T12:50:15.330Z,49862.32
2019-06-08T12:52:43.298Z,43644.21
2019-06-08T12:55:14.344Z,46903.95
2019-06-08T12:57:38.758Z,46616.74
2019-06-08T13:00:08.466Z,51298.48
2019-06-08T13:02:35.609Z,45551.59
2019-06-08T13:05:04.937Z,53418.48
2019-06-08T13:07:31.468Z,51960.41
2019-06-08T13:09:58.392Z,51841.39
2019-06-08T13:12:25.029Z,46509.57
2019-06-08T13:14:51.698Z,39369.43
2019-06-08T13:17:19.880Z,44098.27
2019-06-08T13:19:48.199Z,46181.32
2019-06-08T13:22:14.934Z,37713.25
2019-06-08T13:24:41.552Z,39010.28
2019-06-08T13:27:12.174Z,27949.95
2019-06-08T13:29:36.512Z,32587.27
2019-06-08T13:32:03.128Z,38221.99
2019-06-08T13:34:29.662Z,38481.86
2019-06-08T13:36:56.182Z,35501.51
2019-06-08T13:39:23.230Z,40287.64
2019-06-08T13:41:52.059Z,32542.84
2019-06-08T13:44:18.316Z,35813.75
2019-06-08T13:46:44.866Z,39343.04
2019-06-08T13:49:12.257Z,32552.79
2019-06-08T13:51:38.854Z,43517.74
2019-06-08T13:54:05.379Z,35382.29
2019-06-08T13:56:31.932Z,40365.59
2019-06-08T13:58:58.454Z,38342.46
2019-06-08T14:01:30.375Z,33934.49
2019-06-08T14:03:53.702Z,34627.22
2019-06-08T14:06:21.791Z,36539.46
2019-06-08T14:08:49.849Z,34447.41
2019-06-08T14:11:18.738Z,29323.28
2019-06-08T14:13:44.865Z,24800.69
2019-06-08T14:16:11.783Z,26409.90
2019-06-08T14:18:38.627Z,23020.69
2019-06-08T14:21:05.313Z,23643.22
2019-06-08T14:23:31.829Z,28290.11
2019-06-08T14:26:00.237Z,31719.73
2019-06-08T14:28:28.995Z,31418.14
2019-06-08T14:30:55.237Z,27529.30
2019-06-08T14:33:26.735Z,26595.39
2019-06-08T14:35:50.277Z,30538.37
2019-06-08T14:38:22.505Z,38500.54
2019-06-08T14:40:47.393Z,32295.21
2019-06-08T14:43:13.826Z,31556.64
2019-06-08T14:45:40.369Z,40059.18
2019-06-08T14:48:06.930Z,37586.76
2019-06-08T14:50:33.854Z,31155.96
2019-06-08T14:53:00.376Z,25995.65
2019-06-08T14:55:33.241Z,38742.07
2019-06-08T14:57:57.853Z,30996.89
2019-06-08T15:00:24.497Z,36180.35
2019-06-08T15:02:52.121Z,32554.45
2019-06-08T15:05:19.888Z,34260.17
2019-06-08T15:07:47.796Z,29198.18
2019-06-08T15:10:14.674Z,27656.27
2019-06-08T15:12:41.193Z,26116.90
2019-06-08T15:15:11.041Z,35456.34
2019-06-08T15:17:37.964Z,31074.61
2019-06-08T15:20:08.645Z,33712.74
2019-06-08T15:22:34.617Z,21988.61
2019-06-08T15:25:01.365Z,29336.80
2019-06-08T15:27:30.417Z,37274.28
2019-06-08T15:29:58.517Z,20646.31
2019-06-08T15:32:24.912Z,30445.97
2019-06-08T15:34:53.165Z,34952.55
2019-06-08T15:37:19.685Z,29193.32
2019-06-08T15:39:51.167Z,24933.38
2019-06-08T15:42:14.639Z,25168.60
2019-06-08T15:44:41.234Z,30588.50
2019-06-08T15:47:08.196Z,25935.05
2019-06-08T15:49:35.103Z,23750.30
2019-06-08T15:52:01.671Z,25848.86
2019-06-08T15:54:33.575Z,31928.80
2019-06-08T15:56:58.517Z,28245.79
2019-06-08T15:59:25.067Z,27728.36
2019-06-08T16:01:51.598Z,27177.10
2019-06-08T16:04:18.112Z,23930.22
2019-06-08T16:06:44.703Z,28506.81
2019-06-08T16:09:12.205Z,30018.97
2019-06-08T16:11:38.742Z,31112.05
2019-06-08T16:14:05.466Z,41641.96
2019-06-08T16:16:33.378Z,30848.98
2019-06-08T16:18:59.975Z,33748.43
2019-06-08T16:21:27.308Z,29783.66
2019-06-08T16:23:55.842Z,32870.05
2019-06-08T16:26:22.762Z,36787.24
2019-06-08T16:28:49.287Z,32575.06
2019-06-08T16:31:15.832Z,37336.64
2019-06-08T16:33:44.242Z,32121.05
2019-06-08T16:36:10.826Z,36446.22
2019-06-08T16:38:38.340Z,42941.23
2019-06-08T16:41:05.000Z,50274.48
2019-06-08T16:43:32.970Z,46282.77
2019-06-08T16:45:59.552Z,44827.04
2019-06-08T16:48:26.078Z,46940.87
2019-06-08T16:50:59.588Z,51127.58
2019-06-08T16:53:27.350Z,52458.39
2019-06-08T16:55:54.054Z,51272.15
2019-06-08T16:58:20.627Z,53626.90
2019-06-08T17:00:59.936Z,55102.95
2019-06-08T17:03:40.743Z,56985.96
2019-06-08T17:06:07.303Z,57419.05
2019-06-08T17:08:37.029Z,59736.56
2019-06-08T17:11:02.286Z,58212.40
2019-06-08T17:13:30.051Z,58520.52
2019-06-08T17:15:56.760Z,60447.89
2019-06-08T17:18:23.306Z,60128.96
2019-06-08T17:20:49.834Z,58797.58
2019-06-08T17:23:17.065Z,58510.81
2019-06-08T17:25:45.797Z,59136.62
2019-06-08T17:28:12.318Z,60392.12
2019-06-08T17:30:39.400Z,61283.37
2019-06-08T17:33:06.097Z,60280.16
2019-06-08T17:35:35.560Z,60845.79
2019-06-08T17:38:02.375Z,61352.95
2019-06-08T17:40:28.884Z,61927.45
2019-06-08T17:42:55.641Z,62281.96
2019-06-08T17:45:25.079Z,61847.17
2019-06-08T17:47:53.523Z,62652.29
2019-06-08T17:50:20.250Z,62635.37
2019-06-08T17:52:48.951Z,62042.43
2019-06-08T17:55:26.029Z,62731.72
2019-06-08T17:57:54.579Z,62619.15
2019-06-08T18:00:21.846Z,62863.95
2019-06-08T18:02:48.505Z,62802.53
2019-06-08T18:05:17.723Z,62660.68
2019-06-08T18:07:45.678Z,62852.13
2019-06-08T18:10:12.613Z,62740.59
2019-06-08T18:12:42.569Z,63025.63
2019-06-08T18:15:11.593Z,63033.80
2019-06-08T18:17:42.628Z,63096.95
2019-06-08T18:20:13.335Z,63140.17
2019-06-08T18:22:42.520Z,63131.34
2019-06-08T18:25:10.189Z,63106.82
2019-06-08T18:27:39.147Z,63107.38
2019-06-08T18:30:08.968Z,63123.70
2019-06-08T18:32:40.544Z,63113.17
2019-06-08T18:35:07.801Z,63088.10
2019-06-08T18:37:34.862Z,63090.46
2019-06-08T18:40:07.208Z,63084.24
2019-06-08T18:42:35.280Z,63088.15
2019-06-08T18:45:04.799Z,63088.37
2019-06-08T18:47:31.329Z,63079.75
2019-06-08T18:49:57.915Z,63068.00
2019-06-08T18:52:24.445Z,63052.68
2019-06-08T18:54:50.971Z,63043.67
2019-06-08T18:57:17.705Z,63029.55
2019-06-08T18:59:48.674Z,63012.21
2019-06-08T19:02:12.884Z,63005.50
2019-06-08T19:04:41.545Z,62997.87
2019-06-08T19:07:08.022Z,62992.16
2019-06-08T19:09:37.489Z,62993.96
2019-06-08T19:12:03.921Z,62995.65
2019-06-08T19:14:30.658Z,62993.83
2019-06-08T19:16:58.315Z,62992.85
2019-06-08T19:19:24.864Z,62995.71
2019-06-08T19:21:51.382Z,62983.56
2019-06-08T19:24:18.423Z,62973.03
2019-06-08T19:26:45.929Z,62972.70
2019-06-08T19:29:13.622Z,62973.53
2019-06-08T19:31:42.316Z,62967.32
2019-06-08T19:34:08.576Z,62966.76
2019-06-08T19:36:35.098Z,62962.16
2019-06-08T19:39:01.721Z,62945.86
2019-06-08T19:41:28.464Z,62937.68
2019-06-08T19:43:55.034Z,62937.68
2019-06-08T19:46:21.609Z,62933.77
2019-06-08T19:48:53.868Z,62925.52
2019-06-08T19:51:17.162Z,60162.21
2019-06-08T19:53:46.585Z,30898.46
2019-06-08T19:56:12.290Z,-1639.25
2019-06-08T19:58:53.523Z,-14460.87
2019-06-08T20:01:07.448Z,-18943.91
2019-06-08T20:03:33.994Z,-21428.05
2019-06-08T20:06:00.519Z,-22423.81
2019-06-08T20:08:28.586Z,-22919.67
2019-06-08T20:10:57.416Z,-23082.99
2019-06-08T20:13:23.964Z,-23081.75
2019-06-08T20:15:57.130Z,-19267.38
2019-06-08T20:18:18.918Z,-21421.35
2019-06-08T20:20:46.533Z,-21917.60
2019-06-08T20:23:13.890Z,-23075.86
2019-06-08T20:25:41.092Z,-23073.64
2019-06-08T20:28:08.014Z,-23071.87
2019-06-08T20:30:34.692Z,-23070.69
2019-06-08T20:33:01.221Z,-23071.87
2019-06-08T20:35:28.161Z,-23072.76
2019-06-08T20:37:55.131Z,-23075.41
2019-06-08T20:40:28.251Z,-23074.08
2019-06-08T20:42:54.823Z,-23071.73
2019-06-08T20:45:21.335Z,-23067.59
2019-06-08T20:47:51.067Z,-23067.59
2019-06-08T20:50:17.660Z,-23072.31
2019-06-08T20:52:44.438Z,-23076.88
2019-06-08T20:55:11.107Z,-23075.56
2019-06-08T20:57:37.647Z,-23072.31
2019-06-08T21:00:09.224Z,-23066.71
2019-06-08T21:02:37.100Z,-23064.20
2019-06-08T21:05:07.660Z,-23059.77
2019-06-08T21:07:34.021Z,-23058.59
2019-06-08T21:10:00.549Z,-23061.69
2019-06-08T21:12:28.333Z,-23064.20
2019-06-08T21:14:55.507Z,-23067.89
2019-06-08T21:17:22.137Z,-23070.10
2019-06-08T21:19:48.853Z,-23067.74
2019-06-08T21:22:15.394Z,-23063.61
2019-06-08T21:24:41.921Z,-23057.41
2019-06-08T21:27:08.448Z,-23055.79
2019-06-08T21:29:47.453Z,-23056.23
2019-06-08T21:32:03.440Z,-23057.11
2019-06-08T21:34:29.976Z,-23058.00
2019-06-08T21:37:00.537Z,-23057.41
2019-06-08T21:39:24.940Z,-23055.34
2019-06-08T21:41:54.878Z,-23051.21
2019-06-08T21:44:19.907Z,-23048.25
2019-06-08T21:46:48.685Z,-23046.48
2019-06-08T21:49:14.864Z,-23046.48
2019-06-08T21:51:41.483Z,-23046.48
2019-06-08T21:54:08.012Z,-23045.00
2019-06-08T21:56:36.931Z,-23041.01
2019-06-08T21:59:03.088Z,-23041.46
2019-06-08T22:01:30.809Z,-23040.87
2019-06-08T22:03:58.989Z,-23038.50
2019-06-08T22:06:25.775Z,-23038.80
2019-06-08T22:08:52.308Z,-23039.39
2019-06-08T22:11:18.850Z,-23040.27
2019-06-08T22:13:47.475Z,-23039.54
2019-06-08T22:16:13.952Z,-23037.17
2019-06-08T22:18:41.434Z,-23036.43
2019-06-08T22:21:08.325Z,-23033.77
2019-06-08T22:23:34.882Z,-23033.48
2019-06-08T22:26:01.419Z,-23031.11
2019-06-08T22:28:27.938Z,-23030.67
2019-06-08T22:30:56.173Z,-23027.57
2019-06-08T22:33:22.967Z,-23026.39
2019-06-08T22:35:49.491Z,-23024.91
2019-06-08T22:38:17.718Z,-23024.31
2019-06-08T22:40:44.348Z,-23022.84
2019-06-08T22:43:10.969Z,-23023.43
2019-06-08T22:45:37.695Z,-23022.68
2019-06-08T22:48:04.294Z,-23021.65
2019-06-08T22:50:30.870Z,-23021.65
2019-06-08T22:52:59.509Z,-23018.70
2019-06-08T22:55:27.817Z,-23018.10
2019-06-08T22:57:55.326Z,-23017.66
2019-06-08T23:00:24.811Z,-23016.92
2019-06-08T23:02:50.429Z,-23016.33
2019-06-08T23:05:18.581Z,-23013.66
2019-06-08T23:07:45.411Z,-23013.37
2019-06-08T23:10:12.531Z,-23013.08
2019-06-08T23:12:39.063Z,-23012.48
2019-06-08T23:15:07.790Z,-23011.30
2019-06-08T23:17:34.421Z,-23011.15
2019-06-08T23:20:03.587Z,-23010.41
2019-06-08T23:22:30.187Z,-23009.23
2019-06-08T23:24:59.382Z,-23008.34
2019-06-08T23:27:27.042Z,-23007.90
2019-06-08T23:29:53.571Z,-23008.64
2019-06-08T23:32:20.113Z,-23009.23
2019-06-08T23:34:47.811Z,-23008.93
2019-06-08T23:37:14.530Z,-23009.23
2019-06-08T23:39:41.117Z,-23008.93
2019-06-08T23:42:08.062Z,-23009.23
2019-06-08T23:44:34.690Z,-23009.53
2019-06-08T23:47:02.734Z,-23008.49
2019-06-08T23:49:29.337Z,-23005.83
2019-06-08T23:51:58.127Z,-23005.38
2019-06-08T23:54:24.312Z,-23005.83
2019-06-08T23:56:50.853Z,-23005.23
2019-06-08T23:59:17.872Z,-23004.05
